sensor_id;sensor_type;location;lat;lon;timestamp;temperature;humidity
47961;DHT22;33721;48.852;9.936;2022-10-16T00:00:43;14.60;99.90
47961;DHT22;33721;48.852;9.936;2022-10-16T00:03:09;14.60;99.90
47961;DHT22;33721;48.852;9.936;2022-10-16T00:05:42;14.50;99.90
47961;DHT22;33721;48.852;9.936;2022-10-16T00:08:10;14.50;99.90
47961;DHT22;33721;48.852;9.936;2022-10-16T00:10:36;14.50;99.90
47961;DHT22;33721;48.852;9.936;2022-10-16T00:13:02;14.50;99.90
47961;DHT22;33721;48.852;9.936;2022-10-16T00:15:28;14.40;99.90
47961;DHT22;33721;48.852;9.936;2022-10-16T00:17:53;14.40;99.90
47961;DHT22;33721;48.852;9.936;2022-10-16T00:20:19;14.40;99.90
47961;DHT22;33721;48.852;9.936;2022-10-16T00:22:45;14.40;99.90
47961;DHT22;33721;48.852;9.936;2022-10-16T00:25:10;14.40;99.90
47961;DHT22;33721;48.852;9.936;2022-10-16T00:27:36;14.40;99.90
47961;DHT22;33721;48.852;9.936;2022-10-16T00:30:02;14.40;99.90
47961;DHT22;33721;48.852;9.936;2022-10-16T00:32:28;14.40;99.90
47961;DHT22;33721;48.852;9.936;2022-10-16T00:34:54;14.40;99.90
47961;DHT22;33721;48.852;9.936;2022-10-16T00:37:20;14.50;99.90
47961;DHT22;33721;48.852;9.936;2022-10-16T00:39:46;14.50;99.90
47961;DHT22;33721;48.852;9.936;2022-10-16T00:42:16;14.40;99.90
47961;DHT22;33721;48.852;9.936;2022-10-16T00:47:42;14.20;99.90
47961;DHT22;33721;48.852;9.936;2022-10-16T00:50:31;14.20;99.90
47961;DHT22;33721;48.852;9.936;2022-10-16T00:52:59;14.20;99.90
47961;DHT22;33721;48.852;9.936;2022-10-16T00:55:26;14.20;99.90
47961;DHT22;33721;48.852;9.936;2022-10-16T00:57:54;14.20;99.90
47961;DHT22;33721;48.852;9.936;2022-10-16T01:00:25;14.30;99.90
47961;DHT22;33721;48.852;9.936;2022-10-16T01:02:57;14.20;99.90
47961;DHT22;33721;48.852;9.936;2022-10-16T01:05:29;14.20;99.90
47961;DHT22;33721;48.852;9.936;2022-10-16T01:08:42;14.20;99.90
47961;DHT22;33721;48.852;9.936;2022-10-16T01:11:06;14.20;99.90
47961;DHT22;33721;48.852;9.936;2022-10-16T01:13:40;14.10;99.90
47961;DHT22;33721;48.852;9.936;2022-10-16T01:16:18;14.10;99.90
47961;DHT22;33721;48.852;9.936;2022-10-16T01:18:58;14.00;99.90
47961;DHT22;33721;48.852;9.936;2022-10-16T01:21:28;14.00;99.90
47961;DHT22;33721;48.852;9.936;2022-10-16T01:29:48;14.00;99.90
47961;DHT22;33721;48.852;9.936;2022-10-16T01:32:34;14.10;99.90
47961;DHT22;33721;48.852;9.936;2022-10-16T01:35:05;14.10;99.90
47961;DHT22;33721;48.852;9.936;2022-10-16T01:37:36;14.10;99.90
47961;DHT22;33721;48.852;9.936;2022-10-16T01:40:06;14.10;99.90
47961;DHT22;33721;48.852;9.936;2022-10-16T01:42:47;14.00;99.90
47961;DHT22;33721;48.852;9.936;2022-10-16T01:45:15;14.00;99.90
47961;DHT22;33721;48.852;9.936;2022-10-16T01:47:43;13.90;99.90
47961;DHT22;33721;48.852;9.936;2022-10-16T01:50:10;13.90;99.90
47961;DHT22;33721;48.852;9.936;2022-10-16T01:52:40;13.90;99.90
47961;DHT22;33721;48.852;9.936;2022-10-16T01:55:09;13.90;99.90
47961;DHT22;33721;48.852;9.936;2022-10-16T01:57:38;13.80;99.90
47961;DHT22;33721;48.852;9.936;2022-10-16T02:00:09;13.70;99.90
47961;DHT22;33721;48.852;9.936;2022-10-16T02:02:36;13.60;99.90
47961;DHT22;33721;48.852;9.936;2022-10-16T02:08:06;13.50;99.90
47961;DHT22;33721;48.852;9.936;2022-10-16T02:10:34;13.40;99.90
47961;DHT22;33721;48.852;9.936;2022-10-16T02:13:06;13.40;99.90
47961;DHT22;33721;48.852;9.936;2022-10-16T02:15:32;13.40;99.90
47961;DHT22;33721;48.852;9.936;2022-10-16T02:17:58;13.50;99.90
47961;DHT22;33721;48.852;9.936;2022-10-16T02:20:27;13.50;99.90
47961;DHT22;33721;48.852;9.936;2022-10-16T02:22:54;13.50;99.90
47961;DHT22;33721;48.852;9.936;2022-10-16T02:25:30;13.50;99.90
47961;DHT22;33721;48.852;9.936;2022-10-16T02:28:09;13.50;99.90
47961;DHT22;33721;48.852;9.936;2022-10-16T02:30:47;13.50;99.90
47961;DHT22;33721;48.852;9.936;2022-10-16T02:33:15;13.50;99.90
47961;DHT22;33721;48.852;9.936;2022-10-16T02:35:43;13.50;99.90
47961;DHT22;33721;48.852;9.936;2022-10-16T02:38:11;13.40;99.90
47961;DHT22;33721;48.852;9.936;2022-10-16T02:40:37;13.40;99.90
47961;DHT22;33721;48.852;9.936;2022-10-16T02:43:05;13.40;99.90
47961;DHT22;33721;48.852;9.936;2022-10-16T02:45:31;13.40;99.90
47961;DHT22;33721;48.852;9.936;2022-10-16T02:47:56;13.40;99.90
47961;DHT22;33721;48.852;9.936;2022-10-16T02:50:22;13.40;99.90
47961;DHT22;33721;48.852;9.936;2022-10-16T02:52:48;13.40;99.90
47961;DHT22;33721;48.852;9.936;2022-10-16T02:55:14;13.40;99.90
47961;DHT22;33721;48.852;9.936;2022-10-16T02:57:40;13.40;99.90
47961;DHT22;33721;48.852;9.936;2022-10-16T03:00:07;13.40;99.90
47961;DHT22;33721;48.852;9.936;2022-10-16T03:02:33;13.40;99.90
47961;DHT22;33721;48.852;9.936;2022-10-16T03:04:59;13.40;99.90
47961;DHT22;33721;48.852;9.936;2022-10-16T03:07:24;13.40;99.90
47961;DHT22;33721;48.852;9.936;2022-10-16T03:09:50;13.40;99.90
47961;DHT22;33721;48.852;9.936;2022-10-16T03:12:15;13.40;99.90
47961;DHT22;33721;48.852;9.936;2022-10-16T03:14:41;13.40;99.90
47961;DHT22;33721;48.852;9.936;2022-10-16T03:17:07;13.30;99.90
47961;DHT22;33721;48.852;9.936;2022-10-16T03:19:32;13.20;99.90
47961;DHT22;33721;48.852;9.936;2022-10-16T03:21:58;13.10;99.90
47961;DHT22;33721;48.852;9.936;2022-10-16T03:24:23;13.10;99.90
47961;DHT22;33721;48.852;9.936;2022-10-16T03:26:49;13.10;99.90
47961;DHT22;33721;48.852;9.936;2022-10-16T03:29:15;13.10;99.90
47961;DHT22;33721;48.852;9.936;2022-10-16T03:31:41;13.10;99.90
47961;DHT22;33721;48.852;9.936;2022-10-16T03:34:06;13.20;99.90
47961;DHT22;33721;48.852;9.936;2022-10-16T03:36:32;13.30;99.90
47961;DHT22;33721;48.852;9.936;2022-10-16T03:38:58;13.30;99.90
47961;DHT22;33721;48.852;9.936;2022-10-16T03:41:23;13.40;99.90
47961;DHT22;33721;48.852;9.936;2022-10-16T03:43:49;13.50;99.90
47961;DHT22;33721;48.852;9.936;2022-10-16T03:46:15;13.40;99.90
47961;DHT22;33721;48.852;9.936;2022-10-16T03:48:40;13.30;99.90
47961;DHT22;33721;48.852;9.936;2022-10-16T03:51:06;13.20;99.90
47961;DHT22;33721;48.852;9.936;2022-10-16T03:53:32;13.20;99.90
47961;DHT22;33721;48.852;9.936;2022-10-16T03:55:57;13.20;99.90
47961;DHT22;33721;48.852;9.936;2022-10-16T03:58:23;13.30;99.90
47961;DHT22;33721;48.852;9.936;2022-10-16T04:00:49;13.30;99.90
47961;DHT22;33721;48.852;9.936;2022-10-16T04:03:15;13.30;99.90
47961;DHT22;33721;48.852;9.936;2022-10-16T04:05:41;13.30;99.90
47961;DHT22;33721;48.852;9.936;2022-10-16T04:08:07;13.30;99.90
47961;DHT22;33721;48.852;9.936;2022-10-16T04:10:33;13.30;99.90
47961;DHT22;33721;48.852;9.936;2022-10-16T04:12:58;13.30;99.90
47961;DHT22;33721;48.852;9.936;2022-10-16T04:15:25;13.30;99.90
47961;DHT22;33721;48.852;9.936;2022-10-16T04:17:51;13.20;99.90
47961;DHT22;33721;48.852;9.936;2022-10-16T04:20:17;13.30;99.90
47961;DHT22;33721;48.852;9.936;2022-10-16T04:22:43;13.30;99.90
47961;DHT22;33721;48.852;9.936;2022-10-16T04:25:09;13.30;99.90
47961;DHT22;33721;48.852;9.936;2022-10-16T04:27:36;13.20;99.90
47961;DHT22;33721;48.852;9.936;2022-10-16T04:30:02;13.20;99.90
47961;DHT22;33721;48.852;9.936;2022-10-16T04:32:28;13.20;99.90
47961;DHT22;33721;48.852;9.936;2022-10-16T04:34:53;13.20;99.90
47961;DHT22;33721;48.852;9.936;2022-10-16T04:37:23;13.20;99.90
47961;DHT22;33721;48.852;9.936;2022-10-16T04:39:49;13.20;99.90
47961;DHT22;33721;48.852;9.936;2022-10-16T04:42:15;13.10;99.90
47961;DHT22;33721;48.852;9.936;2022-10-16T04:44:40;13.00;99.90
47961;DHT22;33721;48.852;9.936;2022-10-16T04:47:06;13.10;99.90
47961;DHT22;33721;48.852;9.936;2022-10-16T04:49:32;13.00;99.90
47961;DHT22;33721;48.852;9.936;2022-10-16T04:51:57;13.00;99.90
47961;DHT22;33721;48.852;9.936;2022-10-16T04:54:23;13.00;99.90
47961;DHT22;33721;48.852;9.936;2022-10-16T04:56:48;13.00;99.90
47961;DHT22;33721;48.852;9.936;2022-10-16T04:59:17;13.10;99.90
47961;DHT22;33721;48.852;9.936;2022-10-16T05:01:43;13.10;99.90
47961;DHT22;33721;48.852;9.936;2022-10-16T05:04:09;13.00;99.90
47961;DHT22;33721;48.852;9.936;2022-10-16T05:06:34;13.00;99.90
47961;DHT22;33721;48.852;9.936;2022-10-16T05:09:00;13.00;99.90
47961;DHT22;33721;48.852;9.936;2022-10-16T05:11:26;13.00;99.90
47961;DHT22;33721;48.852;9.936;2022-10-16T05:13:51;13.00;99.90
47961;DHT22;33721;48.852;9.936;2022-10-16T05:16:17;12.90;99.90
47961;DHT22;33721;48.852;9.936;2022-10-16T05:18:42;12.90;99.90
47961;DHT22;33721;48.852;9.936;2022-10-16T05:21:08;13.00;99.90
47961;DHT22;33721;48.852;9.936;2022-10-16T05:23:34;13.00;99.90
47961;DHT22;33721;48.852;9.936;2022-10-16T05:25:59;13.00;99.90
47961;DHT22;33721;48.852;9.936;2022-10-16T05:28:27;13.00;99.90
47961;DHT22;33721;48.852;9.936;2022-10-16T05:30:53;13.10;99.90
47961;DHT22;33721;48.852;9.936;2022-10-16T05:33:23;13.10;99.90
47961;DHT22;33721;48.852;9.936;2022-10-16T05:35:49;13.00;99.90
47961;DHT22;33721;48.852;9.936;2022-10-16T05:38:16;13.00;99.90
47961;DHT22;33721;48.852;9.936;2022-10-16T05:40:42;13.00;99.90
47961;DHT22;33721;48.852;9.936;2022-10-16T05:43:07;13.00;99.90
47961;DHT22;33721;48.852;9.936;2022-10-16T05:45:33;12.90;99.90
47961;DHT22;33721;48.852;9.936;2022-10-16T05:48:00;12.90;99.90
47961;DHT22;33721;48.852;9.936;2022-10-16T05:50:26;12.90;99.90
47961;DHT22;33721;48.852;9.936;2022-10-16T05:52:51;12.90;99.90
47961;DHT22;33721;48.852;9.936;2022-10-16T05:55:17;12.90;99.90
47961;DHT22;33721;48.852;9.936;2022-10-16T05:57:43;12.90;99.90
47961;DHT22;33721;48.852;9.936;2022-10-16T06:00:09;12.90;99.90
47961;DHT22;33721;48.852;9.936;2022-10-16T06:02:35;12.90;99.90
47961;DHT22;33721;48.852;9.936;2022-10-16T06:05:00;12.90;99.90
47961;DHT22;33721;48.852;9.936;2022-10-16T06:07:26;12.90;99.90
47961;DHT22;33721;48.852;9.936;2022-10-16T06:09:52;13.00;99.90
47961;DHT22;33721;48.852;9.936;2022-10-16T06:12:18;13.00;99.90
47961;DHT22;33721;48.852;9.936;2022-10-16T06:14:45;13.00;99.90
47961;DHT22;33721;48.852;9.936;2022-10-16T06:17:13;13.00;99.90
47961;DHT22;33721;48.852;9.936;2022-10-16T06:19:39;13.00;99.90
47961;DHT22;33721;48.852;9.936;2022-10-16T06:22:04;13.10;99.90
47961;DHT22;33721;48.852;9.936;2022-10-16T06:24:30;13.10;99.90
47961;DHT22;33721;48.852;9.936;2022-10-16T06:26:56;13.10;99.90
47961;DHT22;33721;48.852;9.936;2022-10-16T06:29:21;13.00;99.90
47961;DHT22;33721;48.852;9.936;2022-10-16T06:31:47;13.00;99.90
47961;DHT22;33721;48.852;9.936;2022-10-16T06:34:12;13.00;99.90
47961;DHT22;33721;48.852;9.936;2022-10-16T06:36:38;12.90;99.90
47961;DHT22;33721;48.852;9.936;2022-10-16T06:39:05;12.90;99.90
47961;DHT22;33721;48.852;9.936;2022-10-16T06:41:33;13.00;99.90
47961;DHT22;33721;48.852;9.936;2022-10-16T06:43:59;13.10;99.90
47961;DHT22;33721;48.852;9.936;2022-10-16T06:46:25;13.10;99.90
47961;DHT22;33721;48.852;9.936;2022-10-16T06:48:52;13.20;99.90
47961;DHT22;33721;48.852;9.936;2022-10-16T06:51:20;13.30;99.90
47961;DHT22;33721;48.852;9.936;2022-10-16T06:53:49;13.40;99.90
47961;DHT22;33721;48.852;9.936;2022-10-16T06:56:23;13.40;99.90
47961;DHT22;33721;48.852;9.936;2022-10-16T06:58:50;13.50;99.90
47961;DHT22;33721;48.852;9.936;2022-10-16T07:01:17;13.60;99.90
47961;DHT22;33721;48.852;9.936;2022-10-16T07:03:44;13.70;99.90
47961;DHT22;33721;48.852;9.936;2022-10-16T07:06:13;13.80;99.90
47961;DHT22;33721;48.852;9.936;2022-10-16T07:08:40;13.90;99.90
47961;DHT22;33721;48.852;9.936;2022-10-16T07:11:11;13.90;99.90
47961;DHT22;33721;48.852;9.936;2022-10-16T07:13:39;14.00;99.90
47961;DHT22;33721;48.852;9.936;2022-10-16T07:16:13;14.00;99.90
47961;DHT22;33721;48.852;9.936;2022-10-16T07:18:39;14.10;99.90
47961;DHT22;33721;48.852;9.936;2022-10-16T07:21:07;14.30;99.90
47961;DHT22;33721;48.852;9.936;2022-10-16T07:23:33;14.40;99.90
47961;DHT22;33721;48.852;9.936;2022-10-16T07:25:59;14.60;99.90
47961;DHT22;33721;48.852;9.936;2022-10-16T07:28:24;14.60;99.90
47961;DHT22;33721;48.852;9.936;2022-10-16T07:30:50;14.60;99.90
47961;DHT22;33721;48.852;9.936;2022-10-16T07:33:16;14.70;99.90
47961;DHT22;33721;48.852;9.936;2022-10-16T07:35:52;14.80;99.90
47961;DHT22;33721;48.852;9.936;2022-10-16T07:38:18;14.90;99.90
47961;DHT22;33721;48.852;9.936;2022-10-16T07:40:44;15.10;99.90
47961;DHT22;33721;48.852;9.936;2022-10-16T07:43:10;15.30;99.90
47961;DHT22;33721;48.852;9.936;2022-10-16T07:45:36;15.40;99.90
47961;DHT22;33721;48.852;9.936;2022-10-16T07:48:02;15.50;99.90
47961;DHT22;33721;48.852;9.936;2022-10-16T07:50:28;15.50;99.90
47961;DHT22;33721;48.852;9.936;2022-10-16T07:52:54;15.60;99.90
47961;DHT22;33721;48.852;9.936;2022-10-16T07:55:19;15.70;99.90
47961;DHT22;33721;48.852;9.936;2022-10-16T07:57:45;15.70;99.90
47961;DHT22;33721;48.852;9.936;2022-10-16T08:00:11;15.80;99.90
47961;DHT22;33721;48.852;9.936;2022-10-16T08:02:40;15.80;99.90
47961;DHT22;33721;48.852;9.936;2022-10-16T08:05:06;15.90;99.90
47961;DHT22;33721;48.852;9.936;2022-10-16T08:07:32;15.90;99.90
47961;DHT22;33721;48.852;9.936;2022-10-16T08:09:58;15.90;99.90
47961;DHT22;33721;48.852;9.936;2022-10-16T08:12:27;15.90;99.90
47961;DHT22;33721;48.852;9.936;2022-10-16T08:14:52;15.90;99.90
47961;DHT22;33721;48.852;9.936;2022-10-16T08:17:18;15.90;99.90
47961;DHT22;33721;48.852;9.936;2022-10-16T08:19:47;15.90;99.90
47961;DHT22;33721;48.852;9.936;2022-10-16T08:22:13;15.90;99.90
47961;DHT22;33721;48.852;9.936;2022-10-16T08:24:40;15.90;99.90
47961;DHT22;33721;48.852;9.936;2022-10-16T08:27:06;15.90;99.90
47961;DHT22;33721;48.852;9.936;2022-10-16T08:29:32;15.90;99.90
47961;DHT22;33721;48.852;9.936;2022-10-16T08:31:58;16.00;99.90
47961;DHT22;33721;48.852;9.936;2022-10-16T08:34:24;16.00;99.90
47961;DHT22;33721;48.852;9.936;2022-10-16T08:36:49;16.10;99.90
47961;DHT22;33721;48.852;9.936;2022-10-16T08:39:16;16.20;99.90
47961;DHT22;33721;48.852;9.936;2022-10-16T08:42:17;16.30;99.90
47961;DHT22;33721;48.852;9.936;2022-10-16T08:50:25;16.40;99.90
47961;DHT22;33721;48.852;9.936;2022-10-16T08:52:53;16.50;99.90
47961;DHT22;33721;48.852;9.936;2022-10-16T08:55:42;16.60;99.90
47961;DHT22;33721;48.852;9.936;2022-10-16T08:58:15;16.70;99.90
47961;DHT22;33721;48.852;9.936;2022-10-16T09:00:43;16.80;99.90
47961;DHT22;33721;48.852;9.936;2022-10-16T09:08:44;17.20;99.90
47961;DHT22;33721;48.852;9.936;2022-10-16T09:17:06;17.60;99.90
47961;DHT22;33721;48.852;9.936;2022-10-16T09:19:49;17.70;99.90
47961;DHT22;33721;48.852;9.936;2022-10-16T09:22:26;17.80;99.90
47961;DHT22;33721;48.852;9.936;2022-10-16T09:24:55;17.90;99.90
47961;DHT22;33721;48.852;9.936;2022-10-16T09:27:24;18.10;99.90
47961;DHT22;33721;48.852;9.936;2022-10-16T09:29:49;18.20;99.90
47961;DHT22;33721;48.852;9.936;2022-10-16T09:32:20;18.30;99.90
47961;DHT22;33721;48.852;9.936;2022-10-16T09:34:50;18.40;99.90
47961;DHT22;33721;48.852;9.936;2022-10-16T09:37:19;18.40;99.90
47961;DHT22;33721;48.852;9.936;2022-10-16T09:39:52;18.40;99.90
47961;DHT22;33721;48.852;9.936;2022-10-16T09:42:31;18.40;99.90
47961;DHT22;33721;48.852;9.936;2022-10-16T09:44:58;18.40;99.90
47961;DHT22;33721;48.852;9.936;2022-10-16T09:47:26;18.30;99.90
47961;DHT22;33721;48.852;9.936;2022-10-16T09:50:20;18.30;99.90
47961;DHT22;33721;48.852;9.936;2022-10-16T09:52:47;18.40;99.90
47961;DHT22;33721;48.852;9.936;2022-10-16T09:55:16;18.40;99.90
47961;DHT22;33721;48.852;9.936;2022-10-16T09:57:55;18.50;99.90
47961;DHT22;33721;48.852;9.936;2022-10-16T10:00:22;18.60;99.90
47961;DHT22;33721;48.852;9.936;2022-10-16T10:02:48;18.70;99.90
47961;DHT22;33721;48.852;9.936;2022-10-16T10:05:25;18.80;99.90
47961;DHT22;33721;48.852;9.936;2022-10-16T10:07:59;18.80;99.90
47961;DHT22;33721;48.852;9.936;2022-10-16T10:10:30;18.90;99.90
47961;DHT22;33721;48.852;9.936;2022-10-16T10:12:57;19.00;99.90
47961;DHT22;33721;48.852;9.936;2022-10-16T10:15:24;19.00;99.90
47961;DHT22;33721;48.852;9.936;2022-10-16T10:17:57;19.10;99.90
47961;DHT22;33721;48.852;9.936;2022-10-16T10:20:34;19.10;99.90
47961;DHT22;33721;48.852;9.936;2022-10-16T10:23:13;19.20;99.90
47961;DHT22;33721;48.852;9.936;2022-10-16T10:25:55;19.40;99.90
47961;DHT22;33721;48.852;9.936;2022-10-16T10:33:43;19.50;99.90
47961;DHT22;33721;48.852;9.936;2022-10-16T10:50:12;20.70;99.90
47961;DHT22;33721;48.852;9.936;2022-10-16T11:00:57;20.80;99.90
47961;DHT22;33721;48.852;9.936;2022-10-16T11:09:18;20.90;99.90
47961;DHT22;33721;48.852;9.936;2022-10-16T11:14:21;21.30;99.90
47961;DHT22;33721;48.852;9.936;2022-10-16T11:16:56;21.50;99.90
47961;DHT22;33721;48.852;9.936;2022-10-16T11:19:37;21.60;99.90
47961;DHT22;33721;48.852;9.936;2022-10-16T11:22:42;21.60;99.90
47961;DHT22;33721;48.852;9.936;2022-10-16T11:25:20;21.80;99.90
47961;DHT22;33721;48.852;9.936;2022-10-16T11:36:05;22.00;99.90
47961;DHT22;33721;48.852;9.936;2022-10-16T11:41:21;21.70;99.90
47961;DHT22;33721;48.852;9.936;2022-10-16T11:46:46;22.10;99.90
47961;DHT22;33721;48.852;9.936;2022-10-16T11:49:20;22.10;99.90
47961;DHT22;33721;48.852;9.936;2022-10-16T11:52:11;22.10;99.90
47961;DHT22;33721;48.852;9.936;2022-10-16T11:54:56;22.30;99.90
47961;DHT22;33721;48.852;9.936;2022-10-16T11:57:28;22.60;99.90
47961;DHT22;33721;48.852;9.936;2022-10-16T12:05:22;22.50;99.90
47961;DHT22;33721;48.852;9.936;2022-10-16T12:10:26;22.70;99.90
47961;DHT22;33721;48.852;9.936;2022-10-16T12:12:53;22.80;99.90
47961;DHT22;33721;48.852;9.936;2022-10-16T12:15:25;22.70;99.90
47961;DHT22;33721;48.852;9.936;2022-10-16T12:17:51;22.50;99.90
47961;DHT22;33721;48.852;9.936;2022-10-16T12:20:19;22.30;99.90
47961;DHT22;33721;48.852;9.936;2022-10-16T12:22:58;22.20;99.90
47961;DHT22;33721;48.852;9.936;2022-10-16T12:28:00;22.80;99.90
47961;DHT22;33721;48.852;9.936;2022-10-16T12:30:28;22.90;99.90
47961;DHT22;33721;48.852;9.936;2022-10-16T12:32:56;22.70;99.90
47961;DHT22;33721;48.852;9.936;2022-10-16T12:35:26;22.90;99.90
47961;DHT22;33721;48.852;9.936;2022-10-16T12:37:53;23.30;99.90
47961;DHT22;33721;48.852;9.936;2022-10-16T12:40:31;23.80;99.90
47961;DHT22;33721;48.852;9.936;2022-10-16T12:42:58;23.80;99.90
47961;DHT22;33721;48.852;9.936;2022-10-16T12:45:28;23.90;99.90
47961;DHT22;33721;48.852;9.936;2022-10-16T12:47:55;24.00;99.90
47961;DHT22;33721;48.852;9.936;2022-10-16T12:50:25;24.00;99.90
47961;DHT22;33721;48.852;9.936;2022-10-16T12:52:52;24.00;99.90
47961;DHT22;33721;48.852;9.936;2022-10-16T12:55:22;24.20;99.90
47961;DHT22;33721;48.852;9.936;2022-10-16T12:58:12;23.90;99.90
47961;DHT22;33721;48.852;9.936;2022-10-16T13:01:10;23.90;99.90
47961;DHT22;33721;48.852;9.936;2022-10-16T13:06:58;24.20;99.90
47961;DHT22;33721;48.852;9.936;2022-10-16T13:09:53;24.40;99.90
47961;DHT22;33721;48.852;9.936;2022-10-16T13:18:23;25.20;99.90
47961;DHT22;33721;48.852;9.936;2022-10-16T13:21:12;25.30;99.90
47961;DHT22;33721;48.852;9.936;2022-10-16T13:29:13;23.70;99.90
47961;DHT22;33721;48.852;9.936;2022-10-16T13:31:40;23.70;99.90
47961;DHT22;33721;48.852;9.936;2022-10-16T13:34:18;23.60;99.90
47961;DHT22;33721;48.852;9.936;2022-10-16T13:36:50;23.20;99.90
47961;DHT22;33721;48.852;9.936;2022-10-16T13:39:26;22.80;99.90
47961;DHT22;33721;48.852;9.936;2022-10-16T13:42:01;22.50;99.90
47961;DHT22;33721;48.852;9.936;2022-10-16T13:44:33;22.50;99.90
47961;DHT22;33721;48.852;9.936;2022-10-16T13:47:01;22.50;99.90
47961;DHT22;33721;48.852;9.936;2022-10-16T13:49:27;22.50;99.90
47961;DHT22;33721;48.852;9.936;2022-10-16T13:51:58;22.40;99.90
47961;DHT22;33721;48.852;9.936;2022-10-16T13:54:25;22.30;99.90
47961;DHT22;33721;48.852;9.936;2022-10-16T13:56:52;22.50;99.90
47961;DHT22;33721;48.852;9.936;2022-10-16T13:59:26;22.90;99.90
47961;DHT22;33721;48.852;9.936;2022-10-16T14:01:55;23.30;99.90
47961;DHT22;33721;48.852;9.936;2022-10-16T14:04:22;23.50;99.90
47961;DHT22;33721;48.852;9.936;2022-10-16T14:06:50;23.40;99.90
47961;DHT22;33721;48.852;9.936;2022-10-16T14:09:28;23.30;99.90
47961;DHT22;33721;48.852;9.936;2022-10-16T14:12:09;23.50;99.90
47961;DHT22;33721;48.852;9.936;2022-10-16T14:14:42;24.00;99.90
47961;DHT22;33721;48.852;9.936;2022-10-16T14:17:18;24.20;99.90
47961;DHT22;33721;48.852;9.936;2022-10-16T14:19:50;24.20;99.90
47961;DHT22;33721;48.852;9.936;2022-10-16T14:24:59;24.10;99.90
47961;DHT22;33721;48.852;9.936;2022-10-16T14:27:34;23.90;99.90
47961;DHT22;33721;48.852;9.936;2022-10-16T14:30:19;23.70;99.90
47961;DHT22;33721;48.852;9.936;2022-10-16T14:32:59;23.50;99.90
47961;DHT22;33721;48.852;9.936;2022-10-16T14:35:32;23.40;99.90
47961;DHT22;33721;48.852;9.936;2022-10-16T14:38:00;23.30;99.90
47961;DHT22;33721;48.852;9.936;2022-10-16T14:40:32;23.30;99.90
47961;DHT22;33721;48.852;9.936;2022-10-16T14:42:59;23.10;99.90
47961;DHT22;33721;48.852;9.936;2022-10-16T14:45:29;22.90;99.90
47961;DHT22;33721;48.852;9.936;2022-10-16T14:47:58;22.90;99.90
47961;DHT22;33721;48.852;9.936;2022-10-16T14:50:24;22.90;99.90
47961;DHT22;33721;48.852;9.936;2022-10-16T14:52:50;22.70;99.90
47961;DHT22;33721;48.852;9.936;2022-10-16T14:55:16;22.50;99.90
47961;DHT22;33721;48.852;9.936;2022-10-16T14:57:43;22.30;99.90
47961;DHT22;33721;48.852;9.936;2022-10-16T15:00:21;22.20;99.90
47961;DHT22;33721;48.852;9.936;2022-10-16T15:02:48;21.90;99.90
47961;DHT22;33721;48.852;9.936;2022-10-16T15:05:20;21.70;99.90
47961;DHT22;33721;48.852;9.936;2022-10-16T15:07:47;21.50;99.90
47961;DHT22;33721;48.852;9.936;2022-10-16T15:10:15;21.40;99.90
47961;DHT22;33721;48.852;9.936;2022-10-16T15:12:41;21.20;99.90
47961;DHT22;33721;48.852;9.936;2022-10-16T15:17:49;21.10;99.90
47961;DHT22;33721;48.852;9.936;2022-10-16T15:20:18;21.00;99.90
47961;DHT22;33721;48.852;9.936;2022-10-16T15:22:43;20.90;99.90
47961;DHT22;33721;48.852;9.936;2022-10-16T15:25:37;20.80;99.90
47961;DHT22;33721;48.852;9.936;2022-10-16T15:28:03;20.70;99.90
47961;DHT22;33721;48.852;9.936;2022-10-16T15:30:29;20.60;99.90
47961;DHT22;33721;48.852;9.936;2022-10-16T15:32:55;20.60;99.90
47961;DHT22;33721;48.852;9.936;2022-10-16T15:35:21;20.50;99.90
47961;DHT22;33721;48.852;9.936;2022-10-16T15:37:47;20.60;99.90
47961;DHT22;33721;48.852;9.936;2022-10-16T15:40:14;20.50;99.90
47961;DHT22;33721;48.852;9.936;2022-10-16T15:42:40;20.40;99.90
47961;DHT22;33721;48.852;9.936;2022-10-16T15:45:06;20.40;99.90
47961;DHT22;33721;48.852;9.936;2022-10-16T15:47:32;20.30;99.90
47961;DHT22;33721;48.852;9.936;2022-10-16T15:49:57;20.10;99.90
47961;DHT22;33721;48.852;9.936;2022-10-16T15:52:23;20.00;99.90
47961;DHT22;33721;48.852;9.936;2022-10-16T15:54:49;20.00;99.90
47961;DHT22;33721;48.852;9.936;2022-10-16T15:57:14;19.90;99.90
47961;DHT22;33721;48.852;9.936;2022-10-16T15:59:40;19.90;99.90
47961;DHT22;33721;48.852;9.936;2022-10-16T16:02:07;19.90;99.90
47961;DHT22;33721;48.852;9.936;2022-10-16T16:04:33;19.90;99.90
47961;DHT22;33721;48.852;9.936;2022-10-16T16:06:58;19.90;99.90
47961;DHT22;33721;48.852;9.936;2022-10-16T16:09:24;19.90;99.90
47961;DHT22;33721;48.852;9.936;2022-10-16T16:11:50;19.80;99.90
47961;DHT22;33721;48.852;9.936;2022-10-16T16:14:17;19.60;99.90
47961;DHT22;33721;48.852;9.936;2022-10-16T16:16:43;19.40;99.90
47961;DHT22;33721;48.852;9.936;2022-10-16T16:19:09;19.30;99.90
47961;DHT22;33721;48.852;9.936;2022-10-16T16:21:35;19.30;99.90
47961;DHT22;33721;48.852;9.936;2022-10-16T16:24:00;19.20;99.90
47961;DHT22;33721;48.852;9.936;2022-10-16T16:26:30;19.20;99.90
47961;DHT22;33721;48.852;9.936;2022-10-16T16:29:02;19.20;99.90
47961;DHT22;33721;48.852;9.936;2022-10-16T16:31:30;19.10;99.90
47961;DHT22;33721;48.852;9.936;2022-10-16T16:33:56;19.10;99.90
47961;DHT22;33721;48.852;9.936;2022-10-16T16:36:23;19.10;99.90
47961;DHT22;33721;48.852;9.936;2022-10-16T16:38:49;19.10;99.90
47961;DHT22;33721;48.852;9.936;2022-10-16T16:41:20;19.10;99.90
47961;DHT22;33721;48.852;9.936;2022-10-16T16:43:46;19.00;99.90
47961;DHT22;33721;48.852;9.936;2022-10-16T16:46:17;18.90;99.90
47961;DHT22;33721;48.852;9.936;2022-10-16T16:48:43;18.80;99.90
47961;DHT22;33721;48.852;9.936;2022-10-16T16:51:14;18.80;99.90
47961;DHT22;33721;48.852;9.936;2022-10-16T16:53:42;18.80;99.90
47961;DHT22;33721;48.852;9.936;2022-10-16T16:56:08;18.80;99.90
47961;DHT22;33721;48.852;9.936;2022-10-16T16:58:34;18.80;99.90
47961;DHT22;33721;48.852;9.936;2022-10-16T17:01:00;18.90;99.90
47961;DHT22;33721;48.852;9.936;2022-10-16T17:03:31;18.90;99.90
47961;DHT22;33721;48.852;9.936;2022-10-16T17:05:58;18.90;99.90
47961;DHT22;33721;48.852;9.936;2022-10-16T17:08:24;18.90;99.90
47961;DHT22;33721;48.852;9.936;2022-10-16T17:10:50;18.90;99.90
47961;DHT22;33721;48.852;9.936;2022-10-16T17:13:19;18.90;99.90
47961;DHT22;33721;48.852;9.936;2022-10-16T17:15:48;18.90;99.90
47961;DHT22;33721;48.852;9.936;2022-10-16T17:18:15;18.90;99.90
47961;DHT22;33721;48.852;9.936;2022-10-16T17:20:41;18.90;99.90
47961;DHT22;33721;48.852;9.936;2022-10-16T17:23:09;18.90;99.90
47961;DHT22;33721;48.852;9.936;2022-10-16T17:25:35;18.90;99.90
47961;DHT22;33721;48.852;9.936;2022-10-16T17:28:02;18.80;99.90
47961;DHT22;33721;48.852;9.936;2022-10-16T17:30:28;18.70;99.90